Time;durP1;ratioP1;P1;durP2;ratioP2;P2;SDS_P1;SDS_P2;PMS_P1;PMS_P2;Temp;Humidity;BMP_temperature;BMP_pressure;BME280_temperature;BME280_humidity;BME280_pressure;Samples;Min_cycle;Max_cycle;Signal;HPM_P1;HPM_P2
2022/06/16 00:01:58;;;;;;;;;;;;;;;17.71;59.50;99221.09;5074938;28;20371;-79
2022/06/16 00:04:24;;;;;;;;;;;;;;;17.68;59.45;99226.84;5076198;28;19931;-81
2022/06/16 00:06:50;;;;;;;;;;;;;;;17.65;59.69;99235.28;5058410;28;19974;-81
2022/06/16 00:09:16;;;;;;;;;;;;;;;17.67;59.66;99229.69;5076070;28;20334;-81
2022/06/16 00:11:42;;;;;;;;;;;;;;;17.68;59.70;99226.84;5074764;28;19924;-81
2022/06/16 00:14:10;;;;;;;;;;;;;;;17.67;59.66;99225.13;5074651;28;20306;-80
2022/06/16 00:16:35;;;;;;;;;;;;;;;17.69;59.91;99233.06;5058053;28;19931;-79
2022/06/16 00:19:01;;;;;;;;;;;;;;;17.70;59.91;99235.59;5058237;28;19924;-79
2022/06/16 00:21:27;;;;;;;;;;;;;;;17.71;59.70;99242.72;5041226;28;20299;-78
2022/06/16 00:23:53;;;;;;;;;;;;;;;17.72;59.66;99239.00;5074577;28;20387;-81
2022/06/16 00:26:20;;;;;;;;;;;;;;;17.72;59.83;99239.00;5058048;28;19929;-82
2022/06/16 00:28:46;;;;;;;;;;;;;;;17.71;59.96;99239.13;5040571;28;20395;-81
2022/06/16 00:31:13;;;;;;;;;;;;;;;17.73;59.98;99246.06;5041248;28;19928;-80
2022/06/16 00:33:39;;;;;;;;;;;;;;;17.76;60.03;99247.63;5057674;28;20303;-80
2022/06/16 00:36:05;;;;;;;;;;;;;;;17.75;60.19;99239.66;5074227;28;20027;-80
2022/06/16 00:38:31;;;;;;;;;;;;;;;17.80;60.15;99240.03;5057441;28;20019;-80
2022/06/16 00:40:57;;;;;;;;;;;;;;;17.80;59.75;99246.28;5057258;28;19933;-80
2022/06/16 00:43:22;;;;;;;;;;;;;;;17.87;59.69;99243.72;5057543;28;19932;-80
2022/06/16 00:45:51;;;;;;;;;;;;;;;17.94;59.54;99240.16;5074303;28;19928;-80
2022/06/16 00:48:25;;;;;;;;;;;;;;;18.05;59.51;99241.63;5074160;28;19925;-80
2022/06/16 00:50:58;;;;;;;;;;;;;;;18.03;59.66;99246.41;5040810;28;19924;-80
2022/06/16 00:53:26;;;;;;;;;;;;;;;18.12;59.59;99239.94;5074533;28;19928;-80
2022/06/16 00:55:52;;;;;;;;;;;;;;;18.26;59.42;99245.66;5057589;28;19924;-81
2022/06/16 00:58:18;;;;;;;;;;;;;;;18.32;59.06;99240.38;5073871;28;19929;-80
2022/06/16 01:00:47;;;;;;;;;;;;;;;18.33;59.45;99241.22;5073856;28;20340;-80
2022/06/16 01:04:51;;;;;;;;;;;;;;;18.46;59.12;99241.50;5073800;28;19924;-80
2022/06/16 01:06:01;;;;;;;;;;;;;;;18.65;58.62;99235.69;5075237;28;19924;-79
2022/06/16 01:08:27;;;;;;;;;;;;;;;18.75;58.17;99240.06;5057464;28;19924;-79
2022/06/16 01:10:54;;;;;;;;;;;;;;;18.85;57.83;99235.25;5073724;28;19969;-79
2022/06/16 01:16:15;;;;;;;;;;;;;;;19.02;56.95;99238.69;5073598;28;20383;-79
2022/06/16 01:18:49;;;;;;;;;;;;;;;19.04;56.11;99234.78;5040708;28;19925;-80
2022/06/16 01:21:15;;;;;;;;;;;;;;;19.01;56.21;99239.72;5074633;28;19924;-80
2022/06/16 01:24:00;;;;;;;;;;;;;;;18.87;56.41;99236.75;5056845;28;20402;-80
2022/06/16 01:26:45;;;;;;;;;;;;;;;18.99;56.10;99250.72;5056920;28;19931;-80
2022/06/16 01:29:17;;;;;;;;;;;;;;;19.07;55.46;99250.69;5073760;28;19925;-80
2022/06/16 01:32:01;;;;;;;;;;;;;;;19.10;55.61;99239.47;5073289;28;19973;-80
2022/06/16 01:34:30;;;;;;;;;;;;;;;19.11;55.51;99238.47;5040328;28;20379;-80
2022/06/16 01:36:56;;;;;;;;;;;;;;;19.17;55.38;99248.56;5039752;28;19974;-80
2022/06/16 01:39:34;;;;;;;;;;;;;;;19.12;55.37;99248.28;5072676;28;19924;-80
2022/06/16 01:42:26;;;;;;;;;;;;;;;19.16;55.35;99246.06;5073358;28;19974;-80
2022/06/16 01:44:58;;;;;;;;;;;;;;;19.18;55.30;99241.28;5055070;28;20280;-80
2022/06/16 01:47:26;;;;;;;;;;;;;;;19.23;54.89;99254.31;5072828;28;19924;-80
2022/06/16 01:49:55;;;;;;;;;;;;;;;19.23;54.87;99254.31;5039524;28;19977;-80
2022/06/16 01:52:24;;;;;;;;;;;;;;;19.15;54.95;99247.91;5039911;28;20089;-79
2022/06/16 01:54:59;;;;;;;;;;;;;;;19.27;54.94;99251.06;5073017;28;19963;-80
2022/06/16 01:57:57;;;;;;;;;;;;;;;19.39;54.62;99251.47;5056252;28;19924;-80
2022/06/16 02:00:25;;;;;;;;;;;;;;;19.48;54.42;99246.81;5061332;28;19924;-80
2022/06/16 02:03:00;;;;;;;;;;;;;;;19.61;54.27;99256.03;5040108;28;19924;-79
2022/06/16 02:05:29;;;;;;;;;;;;;;;19.60;54.56;99251.63;5055759;28;20375;-81
2022/06/16 02:08:05;;;;;;;;;;;;;;;19.81;54.05;99252.81;5072412;28;19931;-81
2022/06/16 02:10:38;;;;;;;;;;;;;;;19.97;54.05;99246.38;5072565;28;20391;-81
2022/06/16 02:13:05;;;;;;;;;;;;;;;20.11;53.67;99249.13;5072263;28;20307;-81
2022/06/16 02:16:01;;;;;;;;;;;;;;;20.19;53.47;99255.47;5072495;28;20313;-81
2022/06/16 02:18:36;;;;;;;;;;;;;;;20.32;52.51;99252.97;5072736;28;19928;-80
2022/06/16 02:21:13;;;;;;;;;;;;;;;20.47;51.94;99253.81;5055446;28;19931;-80
2022/06/16 02:23:39;;;;;;;;;;;;;;;20.64;51.29;99248.19;5055201;28;19929;-80
2022/06/16 02:26:05;;;;;;;;;;;;;;;20.72;51.32;99246.19;5035558;28;19930;-77
2022/06/16 02:28:40;;;;;;;;;;;;;;;20.73;50.95;99247.06;5052045;28;20366;-79
2022/06/16 02:31:12;;;;;;;;;;;;;;;20.76;50.92;99244.81;5068615;28;20338;-80
2022/06/16 02:33:42;;;;;;;;;;;;;;;20.83;51.27;99247.56;5044112;28;20395;-80
2022/06/16 02:36:19;;;;;;;;;;;;;;;20.89;50.98;99254.97;5035264;28;20342;-78
2022/06/16 02:38:54;;;;;;;;;;;;;;;20.93;50.83;99256.28;5035120;28;19929;-80
2022/06/16 02:41:28;;;;;;;;;;;;;;;21.18;50.54;99253.22;5035913;28;19929;-88
2022/06/16 02:44:07;;;;;;;;;;;;;;;21.35;49.58;99246.50;5039665;28;19932;-82
2022/06/16 02:46:49;;;;;;;;;;;;;;;21.39;49.52;99249.66;5038230;28;20273;-86
2022/06/16 02:49:35;;;;;;;;;;;;;;;21.43;49.49;99249.06;5053843;28;20024;-87
2022/06/16 02:52:16;;;;;;;;;;;;;;;21.41;49.46;99256.59;5052884;28;19924;-87
2022/06/16 02:55:00;;;;;;;;;;;;;;;21.37;49.52;99244.44;5037066;28;19924;-91
2022/06/16 02:57:41;;;;;;;;;;;;;;;21.52;49.67;99253.38;5053035;28;19948;-82
2022/06/16 03:00:18;;;;;;;;;;;;;;;21.63;49.43;99248.44;5053211;28;19925;-84
2022/06/16 03:02:44;;;;;;;;;;;;;;;21.62;49.86;99246.72;5069545;28;19932;-86
2022/06/16 03:05:12;;;;;;;;;;;;;;;21.65;49.70;99244.47;5069164;28;19925;-84
2022/06/16 03:07:38;;;;;;;;;;;;;;;21.60;49.76;99249.66;5052314;28;19925;-85
2022/06/16 03:10:50;;;;;;;;;;;;;;;21.73;49.81;99254.34;5052599;28;19925;-82
2022/06/16 03:13:05;;;;;;;;;;;;;;;21.85;49.49;99250.06;5052672;28;20324;-83
2022/06/16 03:15:31;;;;;;;;;;;;;;;21.96;49.72;99248.66;5036625;28;19971;-80
2022/06/16 03:17:56;;;;;;;;;;;;;;;22.01;49.68;99252.50;5053114;28;19933;-83
2022/06/16 03:20:23;;;;;;;;;;;;;;;21.98;49.63;99249.31;5068882;28;19924;-84
2022/06/16 03:22:48;;;;;;;;;;;;;;;22.01;49.54;99252.50;5035859;28;19928;-81
2022/06/16 03:25:15;;;;;;;;;;;;;;;22.10;49.67;99249.63;5051612;28;20384;-84
2022/06/16 03:27:41;;;;;;;;;;;;;;;22.01;49.44;99252.50;5035023;28;19925;-81
2022/06/16 03:30:08;;;;;;;;;;;;;;;22.01;49.49;99248.94;5035835;28;20076;-83
2022/06/16 03:32:34;;;;;;;;;;;;;;;21.95;49.80;99252.44;5036131;28;20300;-81
2022/06/16 03:35:00;;;;;;;;;;;;;;;22.05;49.70;99256.50;5052274;28;19929;-82
2022/06/16 03:37:28;;;;;;;;;;;;;;;21.97;50.54;99258.53;5052952;28;19928;-82
2022/06/16 03:39:59;;;;;;;;;;;;;;;22.06;50.39;99249.16;5052208;28;19974;-84
2022/06/16 03:42:25;;;;;;;;;;;;;;;22.06;50.66;99252.72;5053215;28;19928;-85
2022/06/16 03:44:51;;;;;;;;;;;;;;;22.10;50.94;99249.63;5035643;28;19960;-83
2022/06/16 03:47:17;;;;;;;;;;;;;;;22.21;50.99;99249.94;5035203;28;20023;-81
2022/06/16 03:49:43;;;;;;;;;;;;;;;22.30;50.65;99256.03;5068107;28;19974;-86
2022/06/16 03:52:09;;;;;;;;;;;;;;;22.39;50.72;99249.41;5018387;28;19974;-81
2022/06/16 03:54:37;;;;;;;;;;;;;;;22.46;50.67;99250.28;5067836;28;19925;-82
2022/06/16 03:57:07;;;;;;;;;;;;;;;22.71;50.64;99247.03;5051469;28;19925;-83
2022/06/16 03:59:33;;;;;;;;;;;;;;;23.00;49.83;99249.47;5051556;28;19976;-82
2022/06/16 04:02:05;;;;;;;;;;;;;;;22.92;49.85;99248.81;5051785;28;19924;-84
2022/06/16 04:04:35;;;;;;;;;;;;;;;22.79;50.00;99255.03;5054597;28;19947;-85
2022/06/16 04:07:04;;;;;;;;;;;;;;;22.96;49.33;99250.09;5038922;28;20000;-82
2022/06/16 04:09:30;;;;;;;;;;;;;;;23.08;49.09;99258.50;5055727;28;19925;-80
2022/06/16 04:11:59;;;;;;;;;;;;;;;23.26;48.66;99250.59;5055214;28;19929;-82
2022/06/16 04:14:25;;;;;;;;;;;;;;;23.40;48.12;99252.28;5038570;28;19924;-81
2022/06/16 04:16:58;;;;;;;;;;;;;;;23.41;47.41;99253.13;5038750;28;20306;-78
2022/06/16 04:20:11;;;;;;;;;;;;;;;23.43;46.97;99254.63;5055205;28;19925;-80
2022/06/16 04:22:22;;;;;;;;;;;;;;;23.34;46.79;99255.00;5084553;28;19932;-87
2022/06/16 04:24:58;;;;;;;;;;;;;;;23.34;46.82;99258.56;5055137;28;19975;-83
2022/06/16 04:27:24;;;;;;;;;;;;;;;23.52;46.35;99256.06;5054807;28;19924;-85
2022/06/16 04:29:51;;;;;;;;;;;;;;;23.80;45.82;99256.94;5058780;28;19932;-79
2022/06/16 04:32:17;;;;;;;;;;;;;;;23.90;45.44;99258.22;5062875;28;19928;-79
2022/06/16 04:34:46;;;;;;;;;;;;;;;23.89;45.56;99259.28;5062787;28;19952;-79
2022/06/16 04:37:12;;;;;;;;;;;;;;;23.88;45.73;99254.88;5064696;28;19925;-80
2022/06/16 04:39:39;;;;;;;;;;;;;;;23.96;45.97;99257.38;5055245;28;20398;-85
2022/06/16 04:42:05;;;;;;;;;;;;;;;24.17;45.88;99258.19;5071850;28;19936;-82
2022/06/16 04:44:34;;;;;;;;;;;;;;;24.36;45.33;99249.09;5073229;28;19925;-84
2022/06/16 04:47:06;;;;;;;;;;;;;;;24.54;45.17;99247.63;5070142;28;19931;-86
2022/06/16 04:49:32;;;;;;;;;;;;;;;24.67;45.20;99248.41;5054513;28;19905;-86
2022/06/16 04:51:57;;;;;;;;;;;;;;;24.85;45.40;99250.41;5074895;28;19947;-81
2022/06/16 04:54:25;;;;;;;;;;;;;;;25.00;45.08;99252.03;5081385;28;19929;-83
2022/06/16 04:57:03;;;;;;;;;;;;;;;25.12;44.67;99253.03;5062546;28;19925;-83
2022/06/16 04:59:40;;;;;;;;;;;;;;;25.06;44.61;99256.63;5055406;28;19908;-88
2022/06/16 05:02:22;;;;;;;;;;;;;;;25.09;44.06;99256.22;5060271;28;19931;-82
2022/06/16 05:05:06;;;;;;;;;;;;;;;25.09;44.03;99259.78;5054638;28;19925;-83
2022/06/16 05:07:50;;;;;;;;;;;;;;;25.03;44.42;99255.16;5070233;28;19931;-82
2022/06/16 05:10:33;;;;;;;;;;;;;;;25.01;44.68;99253.69;5054142;28;19928;-82
2022/06/16 05:13:22;;;;;;;;;;;;;;;25.11;44.70;99251.38;5041484;28;20284;-82
2022/06/16 05:16:04;;;;;;;;;;;;;;;25.26;44.79;99257.38;5068366;28;19929;-82
2022/06/16 05:18:59;;;;;;;;;;;;;;;25.67;43.72;99256.03;5049651;28;19928;-83
2022/06/16 05:21:40;;;;;;;;;;;;;;;25.92;42.62;99253.34;5036785;28;20007;-86
2022/06/16 05:24:35;;;;;;;;;;;;;;;25.94;43.64;99253.09;5048042;28;19925;-83
2022/06/16 05:27:23;;;;;;;;;;;;;;;26.16;43.62;99257.09;5053644;28;19924;-83
2022/06/16 05:30:20;;;;;;;;;;;;;;;26.21;43.36;99259.16;5036616;28;19932;-80
2022/06/16 05:33:09;;;;;;;;;;;;;;;26.42;42.76;99253.25;5053520;28;19931;-79
2022/06/16 05:35:54;;;;;;;;;;;;;;;26.67;42.52;99253.22;5069675;28;19925;-81
2022/06/16 05:38:30;;;;;;;;;;;;;;;26.85;42.34;99250.47;5069684;28;19929;-81
2022/06/16 05:41:17;;;;;;;;;;;;;;;27.00;41.89;99246.44;5038985;28;19931;-87
2022/06/16 05:44:01;;;;;;;;;;;;;;;27.32;41.89;99241.59;5053262;28;20347;-79
2022/06/16 05:46:45;;;;;;;;;;;;;;;27.52;41.43;99244.88;5064311;28;19928;-80
2022/06/16 05:49:12;;;;;;;;;;;;;;;27.67;40.83;99238.09;5084716;28;20395;-77
2022/06/16 05:51:39;;;;;;;;;;;;;;;27.57;40.94;99246.94;5072371;28;20306;-79
2022/06/16 05:54:08;;;;;;;;;;;;;;;27.65;41.58;99243.00;5040110;28;20379;-80
2022/06/16 05:56:36;;;;;;;;;;;;;;;27.84;40.12;99242.69;5040154;28;19960;-81
2022/06/16 05:59:02;;;;;;;;;;;;;;;28.02;38.44;99239.00;5055619;28;19964;-79
2022/06/16 06:01:29;;;;;;;;;;;;;;;28.09;38.76;99247.94;5055271;28;19925;-80
2022/06/16 06:04:02;;;;;;;;;;;;;;;27.97;39.08;99240.78;5072981;28;19924;-80
2022/06/16 06:06:27;;;;;;;;;;;;;;;27.95;39.75;99235.53;5056158;28;20424;-80
2022/06/16 06:17:16;;;;;;;;;;;;;;;28.57;38.61;99235.00;5068196;28;19925;-88
2022/06/16 06:19:42;;;;;;;;;;;;;;;28.63;37.77;99239.56;5055664;28;19931;-80
2022/06/16 06:22:13;;;;;;;;;;;;;;;28.74;37.29;99241.44;5072149;28;19924;-78
2022/06/16 06:24:41;;;;;;;;;;;;;;;28.84;35.84;99231.69;5055956;28;20027;-81
2022/06/16 06:27:25;;;;;;;;;;;;;;;29.11;35.66;99232.84;5071993;28;19974;-81
2022/06/16 06:29:52;;;;;;;;;;;;;;;29.20;35.76;99239.59;5055384;28;19950;-80
2022/06/16 06:32:19;;;;;;;;;;;;;;;29.26;35.16;99237.78;5054816;28;19928;-79
2022/06/16 06:34:45;;;;;;;;;;;;;;;29.47;34.53;99234.31;5071861;28;19924;-79
2022/06/16 06:37:12;;;;;;;;;;;;;;;29.71;33.56;99237.78;5038544;28;20268;-78
2022/06/16 06:39:38;;;;;;;;;;;;;;;29.94;31.75;99233.16;5054536;28;21838;-80
2022/06/16 06:42:04;;;;;;;;;;;;;;;30.19;31.83;99232.75;5038158;28;20018;-81
2022/06/16 06:44:33;;;;;;;;;;;;;;;30.34;32.10;99232.13;5071870;28;20232;-80
2022/06/16 06:46:59;;;;;;;;;;;;;;;30.67;31.59;99229.28;5054203;28;19981;-81
2022/06/16 06:49:25;;;;;;;;;;;;;;;30.99;30.53;99228.56;5071065;28;19924;-81
2022/06/16 06:51:50;;;;;;;;;;;;;;;30.95;29.57;99227.41;5067407;28;19931;-81
2022/06/16 06:54:17;;;;;;;;;;;;;;;31.09;29.13;99225.09;5050765;28;19932;-80
2022/06/16 06:56:44;;;;;;;;;;;;;;;30.98;29.08;99235.19;5071514;28;19924;-82
2022/06/16 06:59:13;;;;;;;;;;;;;;;30.96;29.12;99224.41;5054661;28;19977;-88
2022/06/16 07:01:39;;;;;;;;;;;;;;;31.16;28.54;99222.97;5070177;28;20082;-81
2022/06/16 07:04:05;;;;;;;;;;;;;;;31.23;28.52;99222.75;5072580;28;19964;-81
2022/06/16 07:06:30;;;;;;;;;;;;;;;31.12;28.07;99221.81;5054533;28;19932;-81
2022/06/16 07:08:56;;;;;;;;;;;;;;;31.16;29.02;99222.97;5072243;28;20337;-80
2022/06/16 07:11:22;;;;;;;;;;;;;;;31.11;28.92;99226.50;5054357;28;19947;-81
2022/06/16 07:13:48;;;;;;;;;;;;;;;31.14;28.96;99220.47;5071038;28;20375;-83
2022/06/16 07:16:14;;;;;;;;;;;;;;;31.18;28.74;99224.38;5053887;28;19978;-83
2022/06/16 07:18:40;;;;;;;;;;;;;;;31.07;28.47;99225.38;5054052;28;19931;-81
2022/06/16 07:21:06;;;;;;;;;;;;;;;31.13;28.76;99229.81;5072596;28;19924;-86
2022/06/16 07:23:32;;;;;;;;;;;;;;;31.15;28.79;99216.59;5071434;28;19931;-84
2022/06/16 07:25:58;;;;;;;;;;;;;;;31.15;28.68;99215.78;5070956;28;19932;-83
2022/06/16 07:28:24;;;;;;;;;;;;;;;31.53;28.29;99225.84;5071020;28;19924;-84
2022/06/16 07:30:50;;;;;;;;;;;;;;;31.66;27.38;99217.09;5070605;28;19932;-81
2022/06/16 07:33:16;;;;;;;;;;;;;;;31.76;27.31;99216.34;5071695;28;19924;-89
2022/06/16 07:35:43;;;;;;;;;;;;;;;31.91;27.04;99212.91;5074701;28;19931;-89
2022/06/16 07:38:10;;;;;;;;;;;;;;;31.91;26.88;99218.44;5057962;28;20022;-88
2022/06/16 07:40:36;;;;;;;;;;;;;;;31.15;27.58;99205.56;5077648;28;19978;-91
2022/06/16 07:43:01;;;;;;;;;;;;;;;30.98;28.51;99204.81;5077135;28;20019;-89
2022/06/16 07:45:28;;;;;;;;;;;;;;;31.41;28.80;99203.09;5042493;28;20291;-88
2022/06/16 07:47:55;;;;;;;;;;;;;;;31.63;28.45;99211.25;5058858;28;19924;-87
2022/06/16 07:50:20;;;;;;;;;;;;;;;32.12;27.79;99198.13;5075619;28;20031;-85
2022/06/16 07:52:46;;;;;;;;;;;;;;;32.22;27.61;99196.50;5074910;28;20015;-85
2022/06/16 07:55:12;;;;;;;;;;;;;;;32.57;27.06;99198.63;5076397;28;19975;-86
2022/06/16 07:57:45;;;;;;;;;;;;;;;32.43;26.85;99197.47;5057780;28;20311;-85
2022/06/16 08:00:13;;;;;;;;;;;;;;;31.90;27.89;99202.94;5057201;28;19924;-85
2022/06/16 08:02:38;;;;;;;;;;;;;;;31.51;27.96;99192.09;5076169;28;20299;-86
2022/06/16 08:05:04;;;;;;;;;;;;;;;31.19;28.17;99203.13;5091996;28;19925;-89
2022/06/16 08:07:30;;;;;;;;;;;;;;;31.01;28.09;99193.25;5075055;28;19977;-87
2022/06/16 08:09:56;;;;;;;;;;;;;;;31.06;28.66;99192.47;5040870;28;19929;-83
2022/06/16 08:12:22;;;;;;;;;;;;;;;30.71;29.03;99191.78;5075160;28;19928;-86
2022/06/16 08:14:48;;;;;;;;;;;;;;;30.59;29.53;99202.16;5075823;28;19973;-86
2022/06/16 08:17:16;;;;;;;;;;;;;;;30.72;29.72;99189.88;5042914;28;19932;-87
2022/06/16 08:19:41;;;;;;;;;;;;;;;30.71;28.83;99189.03;5075620;28;19924;-87
2022/06/16 08:22:07;;;;;;;;;;;;;;;30.48;28.87;99195.66;5041334;28;20407;-86
2022/06/16 08:24:33;;;;;;;;;;;;;;;30.50;28.98;99189.88;5037166;28;19979;-84
2022/06/16 08:27:00;;;;;;;;;;;;;;;30.37;28.91;99193.03;5069139;28;19964;-85
2022/06/16 08:29:26;;;;;;;;;;;;;;;30.21;29.12;99187.31;5054489;28;19932;-85
2022/06/16 08:31:52;;;;;;;;;;;;;;;30.33;29.03;99183.59;5054442;28;20372;-86
2022/06/16 08:34:18;;;;;;;;;;;;;;;30.31;28.67;99183.00;5054565;28;19931;-87
2022/06/16 08:36:44;;;;;;;;;;;;;;;30.28;28.86;99178.00;5037765;28;19924;-85
2022/06/16 08:39:10;;;;;;;;;;;;;;;30.40;28.70;99175.97;5070819;28;19929;-84
2022/06/16 08:41:39;;;;;;;;;;;;;;;30.07;27.93;99183.22;5037464;28;19951;-83
2022/06/16 08:44:11;;;;;;;;;;;;;;;30.02;28.69;99182.31;5069680;28;20428;-88
2022/06/16 08:46:40;;;;;;;;;;;;;;;30.18;28.62;99179.53;5060756;28;19924;-88
2022/06/16 08:49:13;;;;;;;;;;;;;;;30.47;28.33;99176.63;5074896;28;20315;-84
2022/06/16 08:51:44;;;;;;;;;;;;;;;31.19;28.14;99178.25;5057460;28;20147;-83
2022/06/16 08:54:10;;;;;;;;;;;;;;;31.63;26.52;99178.97;5073714;28;19931;-84
2022/06/16 08:56:36;;;;;;;;;;;;;;;32.05;26.47;99175.41;5040517;28;19924;-83
2022/06/16 08:59:12;;;;;;;;;;;;;;;32.00;26.35;99178.13;5074131;28;19924;-83
2022/06/16 09:01:53;;;;;;;;;;;;;;;31.69;26.38;99177.06;5074161;28;19971;-83
2022/06/16 09:04:24;;;;;;;;;;;;;;;31.39;26.82;99177.63;5073562;28;20382;-82
2022/06/16 09:06:53;;;;;;;;;;;;;;;31.19;27.09;99181.84;5056822;28;19925;-83
2022/06/16 09:12:38;;;;;;;;;;;;;;;30.79;27.77;99173.16;5057019;28;19982;-83
2022/06/16 09:15:13;;;;;;;;;;;;;;;30.63;27.67;99167.44;5040088;28;19930;-83
2022/06/16 09:18:07;;;;;;;;;;;;;;;30.54;27.87;99169.00;5056631;28;20391;-84
2022/06/16 09:20:46;;;;;;;;;;;;;;;30.43;27.35;99175.47;5038823;28;19924;-85
2022/06/16 09:23:27;;;;;;;;;;;;;;;30.63;27.27;99167.44;5056763;28;19967;-84
2022/06/16 09:26:01;;;;;;;;;;;;;;;30.98;26.80;99159.81;5056513;28;19924;-84
2022/06/16 09:28:31;;;;;;;;;;;;;;;31.59;26.93;99161.22;5057584;28;19924;-86
2022/06/16 09:31:01;;;;;;;;;;;;;;;31.88;26.45;99158.97;5056546;28;19928;-84
2022/06/16 09:33:29;;;;;;;;;;;;;;;32.22;26.85;99166.91;5056868;28;19925;-85
2022/06/16 09:36:11;;;;;;;;;;;;;;;32.87;25.66;99164.69;5040401;28;19946;-85
2022/06/16 09:38:41;;;;;;;;;;;;;;;33.51;25.25;99158.75;5056703;28;19928;-86
2022/06/16 09:44:02;;;;;;;;;;;;;;;34.37;25.42;99153.28;5051681;28;19924;-83
2022/06/16 09:46:32;;;;;;;;;;;;;;;34.61;24.64;99150.75;5072463;28;19966;-83
2022/06/16 09:49:07;;;;;;;;;;;;;;;34.90;23.93;99143.31;5055053;28;20367;-86
2022/06/16 09:51:39;;;;;;;;;;;;;;;35.30;23.15;99152.53;5087117;28;20015;-84
2022/06/16 09:54:10;;;;;;;;;;;;;;;35.12;22.57;99153.22;5035839;28;20010;-85
2022/06/16 09:56:55;;;;;;;;;;;;;;;34.74;22.90;99148.16;5071747;28;19963;-84
2022/06/16 09:59:24;;;;;;;;;;;;;;;34.26;23.88;99147.78;5071404;28;19983;-84
2022/06/16 10:02:01;;;;;;;;;;;;;;;34.13;23.76;99148.38;5069415;28;19925;-85
2022/06/16 10:04:27;;;;;;;;;;;;;;;34.03;23.96;99154.78;5071481;28;19964;-86
2022/06/16 10:06:53;;;;;;;;;;;;;;;33.95;23.74;99147.00;5041627;28;19966;-84
2022/06/16 10:09:22;;;;;;;;;;;;;;;33.91;23.33;99145.09;5036031;28;20348;-86
2022/06/16 10:11:59;;;;;;;;;;;;;;;33.99;23.89;99142.59;5052192;28;20449;-87
2022/06/16 10:14:54;;;;;;;;;;;;;;;34.38;22.77;99144.69;5052288;28;19925;-86
2022/06/16 10:17:22;;;;;;;;;;;;;;;34.29;22.56;99152.75;5003335;28;19925;-85
2022/06/16 10:19:48;;;;;;;;;;;;;;;33.95;22.83;99149.78;5083430;28;19931;-85
2022/06/16 10:22:23;;;;;;;;;;;;;;;33.75;22.72;99136.81;5055457;28;19928;-83
2022/06/16 10:25:28;;;;;;;;;;;;;;;33.50;23.26;99145.97;5056972;28;19931;-84
2022/06/16 10:27:58;;;;;;;;;;;;;;;34.30;22.33;99136.94;5060715;28;20322;-84
2022/06/16 10:30:26;;;;;;;;;;;;;;;34.93;21.33;99144.69;5072005;28;19932;-84
2022/06/16 10:33:18;;;;;;;;;;;;;;;35.50;20.61;99135.69;5069202;28;20327;-85
2022/06/16 10:35:47;;;;;;;;;;;;;;;36.18;20.61;99136.69;5045596;28;19925;-84
2022/06/16 10:38:19;;;;;;;;;;;;;;;35.60;20.59;99129.22;5046425;28;19952;-85
2022/06/16 10:40:45;;;;;;;;;;;;;;;36.27;20.53;99134.94;5071284;28;19924;-84
2022/06/16 10:43:13;;;;;;;;;;;;;;;36.95;20.12;99129.03;5073008;28;19924;-84
2022/06/16 10:45:39;;;;;;;;;;;;;;;37.14;19.38;99130.97;5038458;28;19936;-85
2022/06/16 10:48:23;;;;;;;;;;;;;;;37.54;18.70;99118.34;5055120;28;19924;-86
2022/06/16 10:50:56;;;;;;;;;;;;;;;38.13;18.85;99124.22;5071809;28;20419;-84
2022/06/16 10:53:32;;;;;;;;;;;;;;;38.79;18.04;99131.22;5055063;28;19924;-86
2022/06/16 10:56:02;;;;;;;;;;;;;;;38.84;17.53;99122.72;5075893;28;19967;-81
2022/06/16 10:58:30;;;;;;;;;;;;;;;39.12;17.37;99117.03;5057094;28;19925;-86
2022/06/16 11:01:15;;;;;;;;;;;;;;;39.47;17.34;99128.50;5056346;28;19924;-92
2022/06/16 11:03:42;;;;;;;;;;;;;;;39.50;16.74;99127.88;5072470;28;19925;-81
2022/06/16 11:06:11;;;;;;;;;;;;;;;39.82;16.32;99119.16;5076219;28;19978;-91
2022/06/16 11:08:38;;;;;;;;;;;;;;;39.89;15.72;99117.91;5073716;28;19925;-84
2022/06/16 11:11:04;;;;;;;;;;;;;;;40.00;16.27;99117.28;5055892;28;19924;-84
2022/06/16 11:13:33;;;;;;;;;;;;;;;39.49;16.06;99112.22;5058626;28;19925;-83
2022/06/16 11:16:04;;;;;;;;;;;;;;;39.33;16.83;99114.59;5059158;28;19928;-85
2022/06/16 11:18:33;;;;;;;;;;;;;;;40.15;16.25;99116.06;5075817;28;19935;-82
2022/06/16 11:21:00;;;;;;;;;;;;;;;40.69;15.92;99116.69;5059186;28;19997;-81
2022/06/16 11:23:33;;;;;;;;;;;;;;;40.68;16.18;99111.41;5042853;28;19986;-82
2022/06/16 11:26:01;;;;;;;;;;;;;;;39.37;16.70;99106.38;5058950;28;20520;-83
2022/06/16 11:28:27;;;;;;;;;;;;;;;38.97;18.01;99111.81;5076835;28;20341;-83
2022/06/16 11:30:55;;;;;;;;;;;;;;;39.82;17.51;99113.56;5076003;28;19931;-83
2022/06/16 11:34:06;;;;;;;;;;;;;;;40.75;15.78;99112.56;5076740;28;19932;-82
2022/06/16 11:36:11;;;;;;;;;;;;;;;41.18;15.68;99106.16;5058100;28;19985;-83
2022/06/16 11:38:41;;;;;;;;;;;;;;;41.05;15.96;99104.38;5058713;28;19929;-83
2022/06/16 11:41:09;;;;;;;;;;;;;;;41.94;15.07;99107.50;5058240;28;19931;-83
2022/06/16 11:43:53;;;;;;;;;;;;;;;42.21;14.97;99106.22;5058940;28;20002;-81
2022/06/16 11:46:30;;;;;;;;;;;;;;;41.07;15.32;99107.66;5075134;28;19929;-83
2022/06/16 11:48:55;;;;;;;;;;;;;;;39.49;16.40;99115.00;5051756;28;19928;-83
2022/06/16 11:51:45;;;;;;;;;;;;;;;38.74;17.10;99108.97;5041656;28;20370;-83
2022/06/16 11:54:33;;;;;;;;;;;;;;;39.74;16.18;99105.97;5055499;28;20085;-84
2022/06/16 11:57:10;;;;;;;;;;;;;;;40.61;16.50;99097.88;5074629;28;19928;-84
2022/06/16 11:59:39;;;;;;;;;;;;;;;40.59;16.06;99091.81;5058245;28;20418;-84
2022/06/16 12:02:23;;;;;;;;;;;;;;;41.52;14.92;99101.66;5074597;28;20423;-84
2022/06/16 12:05:08;;;;;;;;;;;;;;;42.28;14.15;99102.91;5076427;28;19981;-85
2022/06/16 12:07:39;;;;;;;;;;;;;;;42.75;13.70;99098.00;5091461;28;19924;-84
2022/06/16 12:10:17;;;;;;;;;;;;;;;42.75;13.39;99091.53;5091395;28;19947;-82
2022/06/16 12:12:42;;;;;;;;;;;;;;;41.33;14.33;99095.59;5074467;28;20035;-83
2022/06/16 12:15:20;;;;;;;;;;;;;;;41.00;14.83;99084.94;5074620;28;20054;-83
2022/06/16 12:17:45;;;;;;;;;;;;;;;40.34;14.93;99087.78;5091987;28;19924;-82
2022/06/16 12:20:25;;;;;;;;;;;;;;;40.20;15.46;99085.09;5090830;28;20420;-83
2022/06/16 12:22:51;;;;;;;;;;;;;;;39.11;16.10;99082.66;5074078;28;19924;-83
2022/06/16 12:25:23;;;;;;;;;;;;;;;38.47;16.21;99081.91;5056621;28;19924;-82
2022/06/16 12:27:48;;;;;;;;;;;;;;;38.05;16.48;99078.31;5074034;28;19931;-82
2022/06/16 12:30:16;;;;;;;;;;;;;;;37.93;17.28;99079.97;5073758;28;20367;-82
2022/06/16 12:33:05;;;;;;;;;;;;;;;38.15;16.95;99086.50;5073682;28;19924;-82
2022/06/16 12:35:43;;;;;;;;;;;;;;;39.24;16.68;99080.97;5074364;28;19972;-83
2022/06/16 12:38:16;;;;;;;;;;;;;;;38.49;16.69;99076.03;5057335;28;19931;-89
2022/06/16 12:40:44;;;;;;;;;;;;;;;38.25;17.18;99076.22;5090804;28;19925;-83
2022/06/16 12:43:14;;;;;;;;;;;;;;;39.42;16.19;99065.13;5057365;28;20352;-84
2022/06/16 12:45:48;;;;;;;;;;;;;;;40.77;15.23;99075.81;5073997;28;19925;-85
2022/06/16 12:48:16;;;;;;;;;;;;;;;42.06;14.40;99071.13;5075923;28;19928;-84
2022/06/16 12:50:45;;;;;;;;;;;;;;;42.31;13.63;99072.13;5090647;28;20031;-84
2022/06/16 12:53:14;;;;;;;;;;;;;;;41.40;14.99;99068.66;5057082;28;19990;-83
2022/06/16 12:55:42;;;;;;;;;;;;;;;42.28;14.46;99069.19;5090535;28;19928;-83
2022/06/16 12:58:14;;;;;;;;;;;;;;;43.06;14.04;99068.59;5073967;28;20395;-83
2022/06/16 13:00:42;;;;;;;;;;;;;;;43.44;13.14;99068.41;5091090;28;19932;-83
2022/06/16 13:03:11;;;;;;;;;;;;;;;43.42;13.28;99067.94;5073937;28;19924;-81
2022/06/16 13:05:38;;;;;;;;;;;;;;;43.98;12.74;99068.31;5056998;28;19925;-83
2022/06/16 13:08:04;;;;;;;;;;;;;;;44.48;12.56;99060.66;5073913;28;19924;-83
2022/06/16 13:10:38;;;;;;;;;;;;;;;45.04;12.76;99058.72;5075562;28;19925;-84
2022/06/16 13:13:05;;;;;;;;;;;;;;;44.92;13.19;99058.78;5074078;28;19924;-84
2022/06/16 13:15:38;;;;;;;;;;;;;;;44.99;12.30;99059.00;5073657;28;19924;-85
2022/06/16 13:18:06;;;;;;;;;;;;;;;45.47;11.89;99051.47;5057303;28;20405;-84
2022/06/16 13:20:33;;;;;;;;;;;;;;;44.47;12.08;99059.81;5056688;28;19973;-85
2022/06/16 13:23:03;;;;;;;;;;;;;;;43.50;13.28;99074.66;5056834;28;20035;-85
2022/06/16 13:25:34;;;;;;;;;;;;;;;43.33;13.31;99055.94;5073737;28;19936;-83
2022/06/16 13:28:01;;;;;;;;;;;;;;;42.74;13.64;99051.38;5073532;28;20011;-86